aviador You're here:

KGGE Decoded Metar

GEORGETOWN in SC, USA
Report Time2018-06-23 05:55:00
UTC Time2018-06-23 06:07:59
Flight Rules vfr VFR
Wind200° at 04 kt
W.Decomp.*RWY 23: 3.7 kt HW 1.6 kt LCW
RWY 29: 0.4 kt HW 4 kt LCW
W.Rank200° ranks 3
Current wind is below 200° avg. (7.2)
Visibility9999 m
Phenomena:N/A
Clouds:N/A
CeilingNone
Temp25°C (ISA +10)
Dew Point25°C (100% RH)
QNH1012 hPa
Density Alt1,654 ft
Elevation39 ft
Report Wrong Elevation
Raw Report
METAR KGGE 230555Z AUTO 20004KT 10SM CLR 25/25 A2989 RMK AO2=

Extra information for KGGE:More info

Metar Taf Metar & Taf Last 4 Metars F.Rules Stats Wind Profile Meteogram Temp Stats Airport Information Weather charts Add Link Nearby VenuesMetar ALERT Operation Metar Decoded Social comments

AIRNAV info for KGGE